MDT,Max TemperatureF,Mean TemperatureF,Min TemperatureF,Max Dew PointF,MeanDew PointF,Min DewpointF,Max Humidity, Mean Humidity, Min Humidity, Max Sea Level PressureIn, Mean Sea Level PressureIn, Min Sea Level PressureIn, Max VisibilityMiles, Mean VisibilityMiles, Min VisibilityMiles, Max Wind SpeedMPH, Mean Wind SpeedMPH, Max Gust SpeedMPH,PrecipitationIn, CloudCover, Events, WindDirDegrees
2013-4-1,47,35,23,29,25,20,92,69,45,30.29,30.26,30.17,10,10,10,13,8,15,0.00,2,,94
2013-4-2,57,41,25,37,30,23,92,66,40,30.24,30.09,29.88,10,10,7,24,14,28,0.00,1,,110
2013-4-3,53,44,34,35,28,19,76,53,29,30.23,30.05,29.83,10,10,7,29,12,33,T,3,,6
2013-4-4,47,39,31,30,27,26,89,69,49,30.29,30.18,29.96,10,10,3,24,13,29,T,6,Rain-Snow,94
2013-4-5,67,51,34,41,35,28,89,60,31,29.91,29.70,29.58,10,10,10,26,11,31,0.01,4,Rain-Thunderstorm,50
2013-4-6,52,44,35,42,36,33,100,77,54,29.86,29.80,29.70,10,9,4,18,7,21,0.01,5,Rain,348
2013-4-7,56,41,25,37,31,21,100,69,38,29.92,29.74,29.65,10,6,0,23,13,28,0.03,5,Fog-Rain,50
2013-4-8,31,23,15,20,13,8,81,60,39,30.52,30.24,29.94,10,10,10,23,13,28,0.00,5,,28
2013-4-9,38,26,13,18,11,8,88,62,35,30.62,30.54,30.46,10,10,10,13,5,15,0.00,0,,42
2013-4-10,46,32,18,25,19,14,92,63,33,30.45,30.16,29.87,10,10,10,26,15,32,0.00,1,,136
2013-4-11,51,40,29,36,30,23,100,78,56,29.96,29.82,29.74,10,5,1,24,12,29,0.20,7,Snow,126
2013-4-12,51,39,26,32,27,18,92,61,29,30.06,29.97,29.86,10,10,5,23,13,29,T,5,Snow,343
2013-4-13,47,38,29,37,30,26,96,71,45,29.85,29.60,29.49,10,7,1,31,20,37,0.20,7,Rain-Snow,105
2013-4-14,31,28,24,30,24,21,100,89,78,30.08,29.85,29.59,7,2,0,23,14,28,0.42,8,Fog-Snow,50
2013-4-15,30,27,23,26,24,19,100,88,75,30.23,30.05,29.95,10,2,1,20,11,23,0.09,8,Snow,327
2013-4-16,31,27,22,27,23,19,96,83,69,30.43,30.27,30.10,10,4,1,16,8,18,0.09,8,Snow,35
2013-4-17,31,25,18,22,19,14,92,75,58,30.43,30.38,30.30,10,7,1,13,6,16,0.02,5,Snow,12
2013-4-18,43,28,13,34,23,10,92,73,53,30.35,30.20,30.09,10,10,10,13,6,15,T,2,Rain,138
2013-4-19,43,35,26,34,29,25,92,75,57,30.09,29.97,29.84,10,8,1,23,11,29,0.02,7,Rain-Snow,115
2013-4-20,54,42,29,41,33,26,92,73,54,29.98,29.85,29.79,10,9,2,28,11,36,0.03,6,Rain-Snow-Thunderstorm,118
2013-4-21,41,32,22,34,23,16,96,67,37,30.41,30.18,29.93,10,10,7,25,14,32,T,7,Snow,328
2013-4-22,41,30,18,20,15,12,91,62,33,30.55,30.47,30.39,10,10,10,14,7,21,0.00,4,,306
2013-4-23,53,38,22,32,22,15,88,56,24,30.38,30.17,30.02,10,8,1,30,9,37,T,3,Snow,302
2013-4-24,52,40,28,32,25,19,100,64,28,30.20,30.08,29.93,10,10,3,24,13,29,T,4,Snow,301
2013-4-25,68,50,32,31,26,21,82,50,18,29.91,29.81,29.76,10,10,10,23,10,29,0.00,4,,206
2013-4-26,75,55,34,33,30,28,82,50,18,30.01,29.94,29.88,10,10,10,25,10,35,0.00,0,,221
2013-4-27,77,62,46,37,31,27,58,37,16,29.88,29.78,29.66,10,10,10,32,16,40,0.00,0,,277
2013-4-28,64,55,46,35,29,23,61,42,23,29.96,29.83,29.66,10,10,10,25,12,33,0.00,2,,308
2013-4-29,65,52,39,36,31,24,70,48,25,29.66,29.50,29.37,10,10,10,39,16,51,0.02,4,,266
2013-4-30,45,35,24,34,26,19,85,61,37,30.34,29.89,29.51,10,9,2,35,19,43,0.01,7,Rain-Snow,312